Аэропорт: Нариманово. Астрахань

ICAO: URWA

METAR:
2018/05/20 23:00
URWA 202300Z 11004MPS CAVOK 21/14 Q1014 R09/010070 NOSIG RMK QFE762/1016
METAR:
2018/04/19 06:12
TAF TAF URWA 190500Z 1906/1918 19006G12MPS 9999 SCT020CB 
      TEMPO 1910/1915 22008G13MPS BKN011 SCT020CB